Motte Rimrock Reserve, California Weather observations

Data are for 10 minute period ending at time listed.
 Day   Time   Solar   Ave.   Ave.  Ave.  Vector  Max.   Baro.   Total    
  of    of     Rad.   Air    Rel.  Wind   Wind   Wind  Press.  Precip.   
Year   Day            Temp.  Hum.  Speed  Dir.   Gust                    
2015   (PST)  Kw/m2    F      %     mph   deg.    mph    mb.     in.     
-------------------------------------------------------------------------
 214   15:00   0.70   90.5    29   12.0   303    16.2   944.0    0.00 
 214   15:10   0.68   90.4    30   12.3   308    17.2   943.8    0.00 
 214   15:20   0.65   90.5    30   13.3   320    17.5   943.7    0.00 
 214   15:30   0.62   90.9    29   12.2   301    16.9   943.6    0.00 
 214   15:40   0.58   90.7    29   12.9   304    18.1   943.5    0.00 
 214   15:50   0.55   90.7    29   12.7   306    15.9   943.5    0.00 
 214   16:00   0.52   90.3    30   13.4   303    17.9   943.4    0.00 
 214   16:10   0.49   89.9    30   12.9   308    16.7   943.4    0.00 
 214   16:20   0.46   89.3    31   12.6   303    16.6   943.4    0.00 
 214   16:30   0.42   89.0    32   11.9   296    15.5   943.3    0.00 
 214   16:40   0.39   88.8    32   12.6   302    15.8   943.2    0.00 
 214   16:50   0.35   88.3    33   13.4   304    18.2   943.1    0.00 
 214   17:00   0.32   87.2    34   14.0   300    18.0   943.1    0.00 
 214   17:10   0.28   87.0    34   13.8   300    18.0   943.0    0.00 
 214   17:20   0.25   86.4    35   14.1   304    17.4   943.0    0.00 
 214   17:30   0.22   85.3    36   15.2   310    18.6   942.9    0.00 
 214   17:40   0.18   84.9    36   14.3   312    19.4   943.0    0.00 
 214   17:50   0.15   84.4    35   15.1   313    20.5   943.0    0.00 
 214   18:00   0.12   84.1    35   14.0   317    18.1   943.1    0.00 
 214   18:10   0.09   83.4    35   14.1   315    17.5   943.3    0.00 
 214   18:20   0.07   82.4    37   14.3   308    17.5   943.4    0.00 
 214   18:30   0.05   81.6    37   15.0   302    20.0   943.5    0.00 
 214   18:40   0.03   80.4    40   15.6   307    18.5   943.6    0.00 
 214   18:50   0.01   79.7    41   14.9   307    18.3   943.7    0.00 
 214   19:00   0.01   78.8    45   13.1   305    16.4   943.8    0.00 
 214   19:10   0.01   78.0    48   14.5   308    17.0   943.8    0.00 
 214   19:20   0.00   77.3    51   13.7   306    16.7   944.0    0.00 
 214   19:30   0.00   76.9    50   14.2   302    18.1   944.1    0.00 
 214   19:40   0.00   76.4    52   12.9   304    16.7   944.2    0.00 
 214   19:50   0.00   76.0    53   13.7   306    16.6   944.3    0.00 
 214   20:00   0.00   75.6    53   10.4   307    14.3   944.4    0.00 
 214   20:10   0.00   75.4    53    4.1   359     7.3   944.6    0.00 
 214   20:20   0.00   75.3    54    2.3    27     4.9   944.8    0.00 
 214   20:30   0.00   74.8    54    3.9   328     5.4   945.0    0.00 
 214   20:40   0.00   74.2    55    2.1   312     3.8   945.1    0.00 
 214   20:50   0.00   73.7    57    3.2   308     4.6   945.1    0.00 
 214   21:00   0.00   73.4    58    3.0   318     4.2   945.1    0.00 
 214   21:10   0.00   73.1    59    3.0   308     5.4   945.3    0.00 
 214   21:20   0.00   72.6    61    3.2   299     5.1   945.3    0.00 
 214   21:30   0.00   72.3    62    3.2   295     4.2   945.3    0.00 
 214   21:40   0.00   71.9    62    2.4   280     3.4   945.3    0.00 
 214   21:50   0.00   71.7    63    2.3   287     3.7   945.3    0.00 
 214   22:00   0.00   71.3    64    3.1   297     4.1   945.3    0.00 
 214   22:10   0.00   71.2    64    3.0   304     4.2   945.2    0.00 
 214   22:20   0.00   70.8    66    3.9   309     4.8   945.2    0.00 
 214   22:30   0.00   70.3    67    4.6   317     6.1   945.3    0.00 
 214   22:40   0.00   69.7    69    3.7   295     6.4   945.3    0.00 
 214   22:50   0.00   69.6    70    1.3   296     2.3   945.3    0.00 
 214   23:00   0.00   69.6    71    3.2   312     5.0   945.3    0.00 
 214   23:10   0.00   69.3    71    5.4   306     6.6   945.3    0.00 
 214   23:20   0.00   69.2    72    5.9   316     7.1   945.4    0.00 
 214   23:30   0.00   68.9    73    5.0   315     6.4   945.4    0.00 
 214   23:40   0.00   68.8    74    5.0   323     5.6   945.3    0.00 
 214   23:50   0.00   68.4    75    5.6   318     6.1   945.4    0.00 
 215    0:00   0.00   68.3    75    4.2   325     5.2   945.3    0.00 
 215    0:10   0.00   68.1    76    4.7   316     5.6   945.3    0.00 
 215    0:20   0.00   67.9    76    4.4   323     5.6   945.3    0.00 
 215    0:30   0.00   67.5    77    4.3   331     5.7   945.3    0.00 
 215    0:40   0.00   67.4    78    3.4   354     5.0   945.2    0.00 
 215    0:50   0.00   67.2    79    3.1   333     4.7   945.2    0.00 
 215    1:00   0.00   66.9    80    3.4   318     4.2   945.3    0.00 
 215    1:10   0.00   66.8    80    3.4   306     4.4   945.4    0.00 
 215    1:20   0.00   66.9    80    3.2   307     4.2   945.3    0.00 
 215    1:30   0.00   66.5    80    4.7   291     5.4   945.3    0.00 
 215    1:40   0.00   66.6    80    4.5   292     5.7   945.3    0.00 
 215    1:50   0.00   66.6    80    2.4   291     2.9   945.2    0.00 
 215    2:00   0.00   66.7    79    0.5   299     2.0   945.2    0.00 
 215    2:10   0.00   67.1    78    2.0   326     3.7   945.1    0.00 
 215    2:20   0.00   67.0    78    3.1   337     3.8   945.1    0.00 
 215    2:30   0.00   66.9    78    3.1   336     3.9   945.3    0.00 
 215    2:40   0.00   66.5    79    2.9   332     4.2   945.2    0.00 
 215    2:50   0.00   66.5    80    2.6   342     3.5   945.3    0.00 
 215    3:00   0.00   66.4    80    2.6   343     3.5   945.2    0.00 
 215    3:10   0.00   66.7    79    2.6    13     3.8   945.1    0.00 
 215    3:20   0.00   66.3    80    1.7    46     3.1   945.0    0.00 
 215    3:30   0.00   66.3    80    0.5   230     1.2   944.9    0.00 
 215    3:40   0.00   65.7    81    0.8   286     2.0   944.8    0.00 
 215    3:50   0.00   65.4    82    1.7   319     3.2   944.8    0.00 
 215    4:00   0.00   65.4    83    1.5   313     2.3   944.8    0.00 
 215    4:10   0.00   65.5    83    1.0   286     2.7   944.8    0.00 
 215    4:20   0.00   65.1    84    3.4   283     4.2   944.9    0.00 
 215    4:30   0.00   64.6    84    3.7   275     4.5   945.0    0.00 
 215    4:40   0.00   64.2    85    2.8   277     4.3   945.1    0.00 
 215    4:50   0.00   65.0    83    2.2   296     2.6   945.1    0.00 
 215    5:00   0.00   65.6    82    2.1   301     2.9   945.2    0.00 
 215    5:10   0.00   66.4    81    1.2    48     2.2   945.3    0.00 
 215    5:20   0.01   66.4    80    2.7    16     3.7   945.4    0.00 
 215    5:30   0.02   65.3    82    4.4   327     6.6   945.4    0.00 
 215    5:40   0.05   64.7    84    4.3   315     5.6   945.5    0.00 
 215    5:50   0.07   65.0    84    5.5   315     7.2   945.7    0.00 
 215    6:00   0.09   65.2    84    6.6   318     8.5   945.8    0.00 
 215    6:10   0.12   65.0    84    7.1   310     9.1   945.9    0.00 
 215    6:20   0.16   65.2    84    7.6   308     9.7   946.0    0.00 
 215    6:30   0.19   66.1    82    5.8   311     7.9   946.1    0.00 
 215    6:40   0.23   66.8    80    4.4   308     5.9   946.2    0.00 
 215    6:50   0.27   67.7    78    5.4   319     7.2   946.2    0.00 
 215    7:00   0.30   68.4    77    4.9   321     6.9   946.2    0.00 
 215    7:10   0.34   69.5    75    3.3   310     4.9   946.2    0.00 
 215    7:20   0.37   70.7    72    2.3   269     4.5   946.3    0.00 
 215    7:30   0.41   72.9    67    1.0   212     3.0   946.2    0.00 
 215    7:40   0.45   73.0    67    4.4   134     6.4   946.2    0.00 
 215    7:50   0.48   73.0    66    3.0   113     5.7   946.3    0.00 
 215    8:00   0.52   74.2    64    2.7   177     5.3   946.4    0.00 
 215    8:10   0.55   74.9    62    2.6   168     5.3   946.3    0.00 
 215    8:20   0.59   75.6    60    2.3   197     4.9   946.3    0.00 
 215    8:30   0.62   76.6    58    2.5   172     4.7   946.2    0.00 
 215    8:40   0.65   78.1    54    1.1    40     2.5   946.2    0.00 
 215    8:50   0.68   79.1    52    1.6   156     4.6   946.2    0.00 
 215    9:00   0.71   79.6    48    2.0   221     5.6   946.1    0.00 
 215    9:10   0.74   81.6    44    2.5   253     6.1   946.0    0.00 
 215    9:20   0.77   81.4    44    2.0   316     4.3   945.9    0.00 
 215    9:30   0.79   81.7    44    3.5   288     6.4   945.9    0.00 
 215    9:40   0.82   82.9    41    4.0   279     7.9   946.0    0.00 
 215    9:50   0.84   83.2    40    4.2   285    10.5   946.0    0.00 
 215   10:00   0.86   83.3    42    7.0   295    13.3   945.9    0.00 
 215   10:10   0.88   83.7    41    8.7   303    12.1   946.0    0.00 
 215   10:20   0.90   83.8    42    8.0   295    15.0   946.0    0.00 
 215   10:30   0.92   83.6    43    9.1   296    14.5   945.9    0.00 
 215   10:40   0.92   84.1    40    7.1   301    12.6   945.9    0.00 
 215   10:50   0.87   85.4    38    8.5   300    15.1   945.9    0.00 
 215   11:00   0.83   85.6    36    8.0   307    12.1   945.8    0.00 
 215   11:10   0.93   85.2    36    6.9   304    12.3   945.7    0.00 
 215   11:20   0.98   86.8    33    6.9   308    12.1   945.6    0.00 
 215   11:30   1.01   87.3    31    5.9   320    12.3   945.6    0.00 
 215   11:40   0.98   87.8    31    5.7   288    10.4   945.6    0.00 
 215   11:50   1.01   88.5    30    5.7   323    10.5   945.6    0.00 
 215   12:00   0.83   88.8    29    6.1   318    14.0   945.5    0.00 
 215   12:10   0.94   89.4    29    7.7   312    13.5   945.4    0.00 
 215   12:20   1.02   90.2    28    8.3   297    15.6   945.4    0.00 
 215   12:30   0.71   89.4    29    9.5   305    14.2   945.5    0.00 
 215   12:40   0.94   90.4    28    9.3   307    14.2   945.4    0.00 
 215   12:50   0.91   90.3    28    9.4   301    15.1   945.3    0.00 
 215   13:00   0.98   90.6    26   10.0   300    14.5   945.1    0.00 
 215   13:10   0.99   91.3    23   11.9   303    16.9   945.0    0.00 
 215   13:20   0.87   91.3    22   10.0   304    16.6   945.0    0.00 
 215   13:30   0.96   92.6    21   12.0   297    16.4   945.0    0.00 
 215   13:40   0.94   92.2    23   15.6   314    21.9   944.9    0.00 
 215   13:50   0.95   92.1    25   15.7   311    22.1   944.8    0.00 
 215   14:00   0.89   91.8    26   14.7   314    20.3   944.8    0.00 
 215   14:10   0.56   91.1    26   14.1   316    21.0   944.7    0.00 
 215   14:20   0.81   91.4    25   14.3   306    20.4   944.7    0.00 
 215   14:30   0.93   91.9    25   14.4   320    21.8   944.6    0.00 
 215   14:40   0.52   91.0    26   14.3   316    21.8   944.5    0.00 
 215   14:50   0.33   88.9    27   14.9   309    20.2   944.5    0.00 

Return to Motte Rimrock Reserve graphs page.


Western Regional Climate Center,wrcc@dri.edu